sensor_id;sensor_type;location;lat;lon;timestamp;temperature;humidity
27781;DHT22;15167;1.318;103.762;2023-07-09T00:00:51;29.00;1.00
27781;DHT22;15167;1.318;103.762;2023-07-09T00:03:18;29.10;1.00
27781;DHT22;15167;1.318;103.762;2023-07-09T00:05:48;29.10;1.00
27781;DHT22;15167;1.318;103.762;2023-07-09T00:08:29;29.20;99.90
27781;DHT22;15167;1.318;103.762;2023-07-09T00:10:57;29.40;99.90
27781;DHT22;15167;1.318;103.762;2023-07-09T00:13:26;29.40;99.90
27781;DHT22;15167;1.318;103.762;2023-07-09T00:16:03;29.50;99.90
27781;DHT22;15167;1.318;103.762;2023-07-09T00:18:33;29.60;99.90
27781;DHT22;15167;1.318;103.762;2023-07-09T00:21:00;29.70;99.90
27781;DHT22;15167;1.318;103.762;2023-07-09T00:23:27;29.80;99.90
27781;DHT22;15167;1.318;103.762;2023-07-09T00:25:55;29.80;99.90
27781;DHT22;15167;1.318;103.762;2023-07-09T00:28:22;29.80;99.90
27781;DHT22;15167;1.318;103.762;2023-07-09T00:30:49;29.80;99.90
27781;DHT22;15167;1.318;103.762;2023-07-09T00:33:16;29.80;99.90
27781;DHT22;15167;1.318;103.762;2023-07-09T00:35:47;29.90;99.90
27781;DHT22;15167;1.318;103.762;2023-07-09T00:38:21;29.90;99.90
27781;DHT22;15167;1.318;103.762;2023-07-09T00:43:34;30.10;99.90
27781;DHT22;15167;1.318;103.762;2023-07-09T00:49:08;30.30;99.90
27781;DHT22;15167;1.318;103.762;2023-07-09T00:51:41;30.30;99.90
27781;DHT22;15167;1.318;103.762;2023-07-09T00:56:46;30.50;99.90
27781;DHT22;15167;1.318;103.762;2023-07-09T00:59:22;30.70;99.90
27781;DHT22;15167;1.318;103.762;2023-07-09T01:01:51;30.70;75.70
27781;DHT22;15167;1.318;103.762;2023-07-09T01:04:19;30.70;77.60
27781;DHT22;15167;1.318;103.762;2023-07-09T01:06:53;30.60;33.80
27781;DHT22;15167;1.318;103.762;2023-07-09T01:09:22;30.70;1.00
27781;DHT22;15167;1.318;103.762;2023-07-09T01:11:49;30.80;1.00
27781;DHT22;15167;1.318;103.762;2023-07-09T01:14:19;30.90;1.00
27781;DHT22;15167;1.318;103.762;2023-07-09T01:16:53;30.90;1.00
27781;DHT22;15167;1.318;103.762;2023-07-09T01:19:24;31.00;1.00
27781;DHT22;15167;1.318;103.762;2023-07-09T01:21:59;31.10;1.00
27781;DHT22;15167;1.318;103.762;2023-07-09T01:24:58;31.30;99.90
27781;DHT22;15167;1.318;103.762;2023-07-09T01:29:57;31.60;99.90
27781;DHT22;15167;1.318;103.762;2023-07-09T01:32:25;31.60;1.00
27781;DHT22;15167;1.318;103.762;2023-07-09T01:34:54;31.60;1.00
27781;DHT22;15167;1.318;103.762;2023-07-09T01:37:26;31.60;1.00
27781;DHT22;15167;1.318;103.762;2023-07-09T01:39:53;31.40;1.00
27781;DHT22;15167;1.318;103.762;2023-07-09T01:42:22;31.40;99.90
27781;DHT22;15167;1.318;103.762;2023-07-09T01:44:51;31.30;1.00
27781;DHT22;15167;1.318;103.762;2023-07-09T01:47:18;31.20;1.00
27781;DHT22;15167;1.318;103.762;2023-07-09T01:49:44;31.10;1.00
27781;DHT22;15167;1.318;103.762;2023-07-09T01:52:15;31.00;69.30
27781;DHT22;15167;1.318;103.762;2023-07-09T01:54:45;30.90;99.90
27781;DHT22;15167;1.318;103.762;2023-07-09T01:57:28;31.00;99.90
27781;DHT22;15167;1.318;103.762;2023-07-09T02:00:04;31.10;99.90
27781;DHT22;15167;1.318;103.762;2023-07-09T02:02:32;31.10;99.90
27781;DHT22;15167;1.318;103.762;2023-07-09T02:04:58;31.10;99.90
27781;DHT22;15167;1.318;103.762;2023-07-09T02:07:27;31.10;99.90
27781;DHT22;15167;1.318;103.762;2023-07-09T02:09:54;31.30;99.90
27781;DHT22;15167;1.318;103.762;2023-07-09T02:12:20;31.40;7.90
27781;DHT22;15167;1.318;103.762;2023-07-09T02:14:47;31.40;1.00
27781;DHT22;15167;1.318;103.762;2023-07-09T02:17:15;31.20;28.70
27781;DHT22;15167;1.318;103.762;2023-07-09T02:19:42;31.10;45.70
27781;DHT22;15167;1.318;103.762;2023-07-09T02:22:10;31.10;49.90
27781;DHT22;15167;1.318;103.762;2023-07-09T02:24:37;31.00;55.30
27781;DHT22;15167;1.318;103.762;2023-07-09T02:27:06;31.10;6.80
27781;DHT22;15167;1.318;103.762;2023-07-09T02:29:34;31.40;1.00
27781;DHT22;15167;1.318;103.762;2023-07-09T02:32:01;31.50;1.00
27781;DHT22;15167;1.318;103.762;2023-07-09T02:34:29;31.70;1.00
27781;DHT22;15167;1.318;103.762;2023-07-09T02:36:57;32.00;99.90
27781;DHT22;15167;1.318;103.762;2023-07-09T02:39:25;32.10;99.90
27781;DHT22;15167;1.318;103.762;2023-07-09T02:41:52;32.10;99.90
27781;DHT22;15167;1.318;103.762;2023-07-09T02:44:19;32.20;99.90
27781;DHT22;15167;1.318;103.762;2023-07-09T02:46:46;32.50;99.90
27781;DHT22;15167;1.318;103.762;2023-07-09T02:49:14;32.70;3.80
27781;DHT22;15167;1.318;103.762;2023-07-09T02:51:41;32.70;1.00
27781;DHT22;15167;1.318;103.762;2023-07-09T02:54:07;32.80;99.90
27781;DHT22;15167;1.318;103.762;2023-07-09T02:56:34;32.90;21.40
27781;DHT22;15167;1.318;103.762;2023-07-09T02:59:00;33.10;99.90
27781;DHT22;15167;1.318;103.762;2023-07-09T03:01:27;33.30;99.90
27781;DHT22;15167;1.318;103.762;2023-07-09T03:03:57;33.60;1.00
27781;DHT22;15167;1.318;103.762;2023-07-09T03:06:26;33.70;99.90
27781;DHT22;15167;1.318;103.762;2023-07-09T03:08:52;33.70;99.90
27781;DHT22;15167;1.318;103.762;2023-07-09T03:11:20;33.70;99.90
27781;DHT22;15167;1.318;103.762;2023-07-09T03:13:47;33.40;1.00
27781;DHT22;15167;1.318;103.762;2023-07-09T03:16:15;33.10;92.40
27781;DHT22;15167;1.318;103.762;2023-07-09T03:18:42;32.60;99.90
27781;DHT22;15167;1.318;103.762;2023-07-09T03:21:08;31.80;99.90
27781;DHT22;15167;1.318;103.762;2023-07-09T03:23:35;31.50;99.90
27781;DHT22;15167;1.318;103.762;2023-07-09T03:26:01;31.40;99.90
27781;DHT22;15167;1.318;103.762;2023-07-09T03:28:31;31.30;99.90
27781;DHT22;15167;1.318;103.762;2023-07-09T03:30:58;31.20;99.90
27781;DHT22;15167;1.318;103.762;2023-07-09T03:33:24;30.90;30.10
27781;DHT22;15167;1.318;103.762;2023-07-09T03:35:52;30.80;93.50
27781;DHT22;15167;1.318;103.762;2023-07-09T03:38:18;30.80;2.00
27781;DHT22;15167;1.318;103.762;2023-07-09T03:40:45;30.90;25.00
27781;DHT22;15167;1.318;103.762;2023-07-09T03:43:15;30.80;56.20
27781;DHT22;15167;1.318;103.762;2023-07-09T03:45:44;30.70;94.60
27781;DHT22;15167;1.318;103.762;2023-07-09T03:48:12;30.60;62.30
27781;DHT22;15167;1.318;103.762;2023-07-09T03:50:39;30.50;99.90
27781;DHT22;15167;1.318;103.762;2023-07-09T03:53:05;30.60;99.90
27781;DHT22;15167;1.318;103.762;2023-07-09T03:55:32;30.70;99.90
27781;DHT22;15167;1.318;103.762;2023-07-09T03:57:59;30.60;99.90
27781;DHT22;15167;1.318;103.762;2023-07-09T04:00:25;30.50;99.90
27781;DHT22;15167;1.318;103.762;2023-07-09T04:02:52;30.40;99.90
27781;DHT22;15167;1.318;103.762;2023-07-09T04:05:19;30.20;1.00
27781;DHT22;15167;1.318;103.762;2023-07-09T04:07:45;30.10;1.00
27781;DHT22;15167;1.318;103.762;2023-07-09T04:10:13;29.80;49.70
27781;DHT22;15167;1.318;103.762;2023-07-09T04:12:40;29.60;99.90
27781;DHT22;15167;1.318;103.762;2023-07-09T04:15:07;29.40;99.90
27781;DHT22;15167;1.318;103.762;2023-07-09T04:17:34;29.20;99.90
27781;DHT22;15167;1.318;103.762;2023-07-09T04:20:01;29.00;99.90
27781;DHT22;15167;1.318;103.762;2023-07-09T04:22:32;28.90;99.90
27781;DHT22;15167;1.318;103.762;2023-07-09T04:24:58;28.80;99.90
27781;DHT22;15167;1.318;103.762;2023-07-09T04:27:25;28.70;99.90
27781;DHT22;15167;1.318;103.762;2023-07-09T04:29:54;28.70;99.90
27781;DHT22;15167;1.318;103.762;2023-07-09T04:32:21;28.80;99.90
27781;DHT22;15167;1.318;103.762;2023-07-09T04:34:48;28.80;99.90
27781;DHT22;15167;1.318;103.762;2023-07-09T04:37:16;28.80;99.90
27781;DHT22;15167;1.318;103.762;2023-07-09T04:39:43;28.70;99.90
27781;DHT22;15167;1.318;103.762;2023-07-09T04:42:15;28.70;99.90
27781;DHT22;15167;1.318;103.762;2023-07-09T04:44:44;28.90;38.20
27781;DHT22;15167;1.318;103.762;2023-07-09T04:47:10;29.20;1.00
27781;DHT22;15167;1.318;103.762;2023-07-09T04:49:40;29.50;1.00
27781;DHT22;15167;1.318;103.762;2023-07-09T04:52:08;29.70;1.00
27781;DHT22;15167;1.318;103.762;2023-07-09T04:54:41;29.70;1.00
27781;DHT22;15167;1.318;103.762;2023-07-09T04:57:11;29.80;1.00
27781;DHT22;15167;1.318;103.762;2023-07-09T04:59:38;29.80;1.00
27781;DHT22;15167;1.318;103.762;2023-07-09T05:02:05;29.80;99.90
27781;DHT22;15167;1.318;103.762;2023-07-09T05:04:31;29.60;1.00
27781;DHT22;15167;1.318;103.762;2023-07-09T05:06:58;29.60;1.00
27781;DHT22;15167;1.318;103.762;2023-07-09T05:09:25;29.60;1.00
27781;DHT22;15167;1.318;103.762;2023-07-09T05:11:52;29.50;1.00
27781;DHT22;15167;1.318;103.762;2023-07-09T05:14:19;29.50;1.00
27781;DHT22;15167;1.318;103.762;2023-07-09T05:16:45;29.70;1.00
27781;DHT22;15167;1.318;103.762;2023-07-09T05:19:12;29.70;1.00
27781;DHT22;15167;1.318;103.762;2023-07-09T05:21:39;29.50;1.00
27781;DHT22;15167;1.318;103.762;2023-07-09T05:24:06;29.50;1.00
27781;DHT22;15167;1.318;103.762;2023-07-09T05:26:32;29.60;1.00
27781;DHT22;15167;1.318;103.762;2023-07-09T05:28:59;29.80;1.00
27781;DHT22;15167;1.318;103.762;2023-07-09T05:31:25;29.80;99.90
27781;DHT22;15167;1.318;103.762;2023-07-09T05:33:52;29.80;99.90
27781;DHT22;15167;1.318;103.762;2023-07-09T05:36:18;29.80;99.90
27781;DHT22;15167;1.318;103.762;2023-07-09T05:38:46;29.70;99.90
27781;DHT22;15167;1.318;103.762;2023-07-09T05:41:13;29.70;99.90
27781;DHT22;15167;1.318;103.762;2023-07-09T05:43:43;29.70;99.90
27781;DHT22;15167;1.318;103.762;2023-07-09T05:46:12;29.70;99.90
27781;DHT22;15167;1.318;103.762;2023-07-09T05:48:39;29.60;99.90
27781;DHT22;15167;1.318;103.762;2023-07-09T05:51:05;29.50;1.00
27781;DHT22;15167;1.318;103.762;2023-07-09T05:53:32;29.50;1.00
27781;DHT22;15167;1.318;103.762;2023-07-09T05:55:59;29.40;99.90
27781;DHT22;15167;1.318;103.762;2023-07-09T05:58:26;29.20;99.90
27781;DHT22;15167;1.318;103.762;2023-07-09T06:00:55;29.10;99.90
27781;DHT22;15167;1.318;103.762;2023-07-09T06:03:25;29.00;99.90
27781;DHT22;15167;1.318;103.762;2023-07-09T06:05:53;28.90;1.00
27781;DHT22;15167;1.318;103.762;2023-07-09T06:08:22;28.70;1.00
27781;DHT22;15167;1.318;103.762;2023-07-09T06:11:07;28.60;1.00
27781;DHT22;15167;1.318;103.762;2023-07-09T06:13:33;28.60;1.00
27781;DHT22;15167;1.318;103.762;2023-07-09T06:16:00;28.60;1.00
27781;DHT22;15167;1.318;103.762;2023-07-09T06:18:27;28.60;1.00
27781;DHT22;15167;1.318;103.762;2023-07-09T06:20:59;28.50;1.00
27781;DHT22;15167;1.318;103.762;2023-07-09T06:23:27;28.50;1.00
27781;DHT22;15167;1.318;103.762;2023-07-09T06:25:53;28.50;1.00
27781;DHT22;15167;1.318;103.762;2023-07-09T06:28:23;28.40;1.00
27781;DHT22;15167;1.318;103.762;2023-07-09T06:30:51;28.50;1.00
27781;DHT22;15167;1.318;103.762;2023-07-09T06:33:18;28.60;1.00
27781;DHT22;15167;1.318;103.762;2023-07-09T06:35:50;28.60;1.00
27781;DHT22;15167;1.318;103.762;2023-07-09T06:38:18;28.70;1.00
27781;DHT22;15167;1.318;103.762;2023-07-09T06:40:45;28.80;1.00
27781;DHT22;15167;1.318;103.762;2023-07-09T06:43:12;28.80;1.00
27781;DHT22;15167;1.318;103.762;2023-07-09T06:45:38;28.90;1.00
27781;DHT22;15167;1.318;103.762;2023-07-09T06:48:05;28.80;1.00
27781;DHT22;15167;1.318;103.762;2023-07-09T06:50:36;28.50;1.00
27781;DHT22;15167;1.318;103.762;2023-07-09T06:53:03;28.40;26.40
27781;DHT22;15167;1.318;103.762;2023-07-09T06:55:29;28.20;79.80
27781;DHT22;15167;1.318;103.762;2023-07-09T06:57:57;28.10;72.30
27781;DHT22;15167;1.318;103.762;2023-07-09T07:00:24;28.10;99.90
27781;DHT22;15167;1.318;103.762;2023-07-09T07:02:50;28.10;99.90
27781;DHT22;15167;1.318;103.762;2023-07-09T07:05:17;28.10;99.90
27781;DHT22;15167;1.318;103.762;2023-07-09T07:07:44;28.10;99.90
27781;DHT22;15167;1.318;103.762;2023-07-09T07:10:10;27.90;99.90
27781;DHT22;15167;1.318;103.762;2023-07-09T07:12:46;27.80;99.90
27781;DHT22;15167;1.318;103.762;2023-07-09T07:15:15;27.50;99.90
27781;DHT22;15167;1.318;103.762;2023-07-09T07:17:42;27.50;99.90
27781;DHT22;15167;1.318;103.762;2023-07-09T07:20:11;27.50;99.90
27781;DHT22;15167;1.318;103.762;2023-07-09T07:22:38;27.50;99.90
27781;DHT22;15167;1.318;103.762;2023-07-09T07:25:05;27.40;99.90
27781;DHT22;15167;1.318;103.762;2023-07-09T07:27:32;27.20;1.00
27781;DHT22;15167;1.318;103.762;2023-07-09T07:30:00;27.20;43.10
27781;DHT22;15167;1.318;103.762;2023-07-09T07:32:27;27.20;74.80
27781;DHT22;15167;1.318;103.762;2023-07-09T07:34:53;27.30;91.90
27781;DHT22;15167;1.318;103.762;2023-07-09T07:37:21;27.20;99.80
27781;DHT22;15167;1.318;103.762;2023-07-09T07:39:48;27.30;99.90
27781;DHT22;15167;1.318;103.762;2023-07-09T07:42:14;27.50;99.90
27781;DHT22;15167;1.318;103.762;2023-07-09T07:44:41;27.60;99.90
27781;DHT22;15167;1.318;103.762;2023-07-09T07:47:08;27.60;97.30
27781;DHT22;15167;1.318;103.762;2023-07-09T07:49:36;27.70;99.90
27781;DHT22;15167;1.318;103.762;2023-07-09T07:52:03;27.90;99.90
27781;DHT22;15167;1.318;103.762;2023-07-09T07:54:30;28.10;95.90
27781;DHT22;15167;1.318;103.762;2023-07-09T07:57:00;28.30;52.10
27781;DHT22;15167;1.318;103.762;2023-07-09T07:59:27;28.50;1.50
27781;DHT22;15167;1.318;103.762;2023-07-09T08:01:53;28.60;1.00
27781;DHT22;15167;1.318;103.762;2023-07-09T08:04:20;28.80;1.00
27781;DHT22;15167;1.318;103.762;2023-07-09T08:06:46;28.90;1.00
27781;DHT22;15167;1.318;103.762;2023-07-09T08:09:13;29.00;1.00
27781;DHT22;15167;1.318;103.762;2023-07-09T08:11:39;29.10;1.00
27781;DHT22;15167;1.318;103.762;2023-07-09T08:14:06;29.10;1.00
27781;DHT22;15167;1.318;103.762;2023-07-09T08:16:32;29.30;99.90
27781;DHT22;15167;1.318;103.762;2023-07-09T08:18:59;29.40;99.90
27781;DHT22;15167;1.318;103.762;2023-07-09T08:21:25;29.50;99.90
27781;DHT22;15167;1.318;103.762;2023-07-09T08:23:52;29.60;99.90
27781;DHT22;15167;1.318;103.762;2023-07-09T08:26:18;29.70;99.90
27781;DHT22;15167;1.318;103.762;2023-07-09T08:28:45;29.70;99.90
27781;DHT22;15167;1.318;103.762;2023-07-09T08:31:11;29.70;99.90
27781;DHT22;15167;1.318;103.762;2023-07-09T08:33:38;29.70;99.90
27781;DHT22;15167;1.318;103.762;2023-07-09T08:36:06;29.70;99.90
27781;DHT22;15167;1.318;103.762;2023-07-09T08:38:32;29.80;99.90
27781;DHT22;15167;1.318;103.762;2023-07-09T08:41:02;30.10;99.90
27781;DHT22;15167;1.318;103.762;2023-07-09T08:48:54;30.90;57.80
27781;DHT22;15167;1.318;103.762;2023-07-09T08:51:38;31.00;21.30
27781;DHT22;15167;1.318;103.762;2023-07-09T08:54:15;30.70;21.60
27781;DHT22;15167;1.318;103.762;2023-07-09T08:56:45;30.00;99.90
27781;DHT22;15167;1.318;103.762;2023-07-09T08:59:15;29.50;99.90
27781;DHT22;15167;1.318;103.762;2023-07-09T09:01:53;29.50;99.90
27781;DHT22;15167;1.318;103.762;2023-07-09T09:04:28;29.60;99.90
27781;DHT22;15167;1.318;103.762;2023-07-09T09:09:48;29.50;99.90
27781;DHT22;15167;1.318;103.762;2023-07-09T09:12:17;29.40;99.90
27781;DHT22;15167;1.318;103.762;2023-07-09T09:17:39;29.70;99.90
27781;DHT22;15167;1.318;103.762;2023-07-09T09:20:17;30.40;17.90
27781;DHT22;15167;1.318;103.762;2023-07-09T09:22:54;31.50;99.90
27781;DHT22;15167;1.318;103.762;2023-07-09T09:25:31;33.00;47.90
27781;DHT22;15167;1.318;103.762;2023-07-09T09:28:00;34.50;99.90
27781;DHT22;15167;1.318;103.762;2023-07-09T09:30:27;35.70;27.00
27781;DHT22;15167;1.318;103.762;2023-07-09T09:32:57;35.40;99.90
27781;DHT22;15167;1.318;103.762;2023-07-09T09:35:32;35.00;1.00
27781;DHT22;15167;1.318;103.762;2023-07-09T09:38:00;34.60;99.90
27781;DHT22;15167;1.318;103.762;2023-07-09T09:40:29;34.80;94.10
27781;DHT22;15167;1.318;103.762;2023-07-09T09:42:59;34.50;99.90
27781;DHT22;15167;1.318;103.762;2023-07-09T09:45:38;33.60;99.90
27781;DHT22;15167;1.318;103.762;2023-07-09T09:50:41;32.30;99.90
27781;DHT22;15167;1.318;103.762;2023-07-09T09:53:08;31.70;1.00
27781;DHT22;15167;1.318;103.762;2023-07-09T09:55:38;31.20;99.90
27781;DHT22;15167;1.318;103.762;2023-07-09T09:58:15;30.80;1.00
27781;DHT22;15167;1.318;103.762;2023-07-09T10:00:51;30.30;1.00
27781;DHT22;15167;1.318;103.762;2023-07-09T10:03:19;29.90;11.50
27781;DHT22;15167;1.318;103.762;2023-07-09T10:05:52;29.80;34.50
27781;DHT22;15167;1.318;103.762;2023-07-09T10:19:45;28.70;99.90
27781;DHT22;15167;1.318;103.762;2023-07-09T10:25:33;28.40;99.90
27781;DHT22;15167;1.318;103.762;2023-07-09T10:31:18;28.30;99.90
27781;DHT22;15167;1.318;103.762;2023-07-09T10:39:34;28.00;1.00
27781;DHT22;15167;1.318;103.762;2023-07-09T10:42:01;27.90;1.00
27781;DHT22;15167;1.318;103.762;2023-07-09T10:44:35;27.80;1.00
27781;DHT22;15167;1.318;103.762;2023-07-09T10:47:09;27.70;1.00
27781;DHT22;15167;1.318;103.762;2023-07-09T10:49:41;27.80;1.40
27781;DHT22;15167;1.318;103.762;2023-07-09T10:52:34;27.90;8.70
27781;DHT22;15167;1.318;103.762;2023-07-09T10:55:25;28.10;6.40
27781;DHT22;15167;1.318;103.762;2023-07-09T10:58:02;28.20;1.00
27781;DHT22;15167;1.318;103.762;2023-07-09T11:00:36;28.40;1.00
27781;DHT22;15167;1.318;103.762;2023-07-09T11:05:54;28.60;1.00
27781;DHT22;15167;1.318;103.762;2023-07-09T11:08:25;28.50;1.00
27781;DHT22;15167;1.318;103.762;2023-07-09T11:11:20;28.30;1.00
27781;DHT22;15167;1.318;103.762;2023-07-09T11:13:56;28.30;1.00
27781;DHT22;15167;1.318;103.762;2023-07-09T11:16:32;28.40;1.00
27781;DHT22;15167;1.318;103.762;2023-07-09T11:19:02;28.50;1.00
27781;DHT22;15167;1.318;103.762;2023-07-09T11:21:30;28.60;1.00
27781;DHT22;15167;1.318;103.762;2023-07-09T11:23:58;28.60;1.00
27781;DHT22;15167;1.318;103.762;2023-07-09T11:26:34;28.40;1.00
27781;DHT22;15167;1.318;103.762;2023-07-09T11:31:40;28.10;1.00
27781;DHT22;15167;1.318;103.762;2023-07-09T11:34:08;28.10;1.00
27781;DHT22;15167;1.318;103.762;2023-07-09T11:36:50;28.00;1.00
27781;DHT22;15167;1.318;103.762;2023-07-09T11:39:27;27.90;1.00
27781;DHT22;15167;1.318;103.762;2023-07-09T11:41:55;27.90;1.00
27781;DHT22;15167;1.318;103.762;2023-07-09T11:44:32;27.90;1.00
27781;DHT22;15167;1.318;103.762;2023-07-09T11:47:27;27.90;1.00
27781;DHT22;15167;1.318;103.762;2023-07-09T11:50:01;27.90;1.00
27781;DHT22;15167;1.318;103.762;2023-07-09T11:55:27;28.00;1.00
27781;DHT22;15167;1.318;103.762;2023-07-09T11:58:04;28.00;99.90
27781;DHT22;15167;1.318;103.762;2023-07-09T12:00:39;28.00;99.90
27781;DHT22;15167;1.318;103.762;2023-07-09T12:03:11;27.90;99.90
27781;DHT22;15167;1.318;103.762;2023-07-09T12:05:42;27.90;1.00
27781;DHT22;15167;1.318;103.762;2023-07-09T12:08:15;27.80;1.00
27781;DHT22;15167;1.318;103.762;2023-07-09T12:10:42;27.80;1.00
27781;DHT22;15167;1.318;103.762;2023-07-09T12:13:11;27.70;1.00
27781;DHT22;15167;1.318;103.762;2023-07-09T12:15:40;27.80;1.00
27781;DHT22;15167;1.318;103.762;2023-07-09T12:18:12;27.80;1.00
27781;DHT22;15167;1.318;103.762;2023-07-09T12:20:40;27.70;1.00
27781;DHT22;15167;1.318;103.762;2023-07-09T12:23:26;27.70;1.00
27781;DHT22;15167;1.318;103.762;2023-07-09T12:25:54;27.70;1.00
27781;DHT22;15167;1.318;103.762;2023-07-09T12:28:21;27.70;1.00
27781;DHT22;15167;1.318;103.762;2023-07-09T12:30:50;27.60;1.00
27781;DHT22;15167;1.318;103.762;2023-07-09T12:33:22;27.60;1.00
27781;DHT22;15167;1.318;103.762;2023-07-09T12:36:10;27.60;1.00
27781;DHT22;15167;1.318;103.762;2023-07-09T12:38:45;27.70;1.00
27781;DHT22;15167;1.318;103.762;2023-07-09T12:41:23;27.70;1.00
27781;DHT22;15167;1.318;103.762;2023-07-09T12:43:54;27.70;1.00
27781;DHT22;15167;1.318;103.762;2023-07-09T12:46:24;27.70;1.00
27781;DHT22;15167;1.318;103.762;2023-07-09T12:48:51;27.70;1.00
27781;DHT22;15167;1.318;103.762;2023-07-09T12:51:25;27.70;1.00
27781;DHT22;15167;1.318;103.762;2023-07-09T12:54:15;27.70;1.00
27781;DHT22;15167;1.318;103.762;2023-07-09T12:56:42;27.80;1.00
27781;DHT22;15167;1.318;103.762;2023-07-09T12:59:26;27.80;1.00
27781;DHT22;15167;1.318;103.762;2023-07-09T13:02:02;27.70;1.00
27781;DHT22;15167;1.318;103.762;2023-07-09T13:04:36;27.70;1.00
27781;DHT22;15167;1.318;103.762;2023-07-09T13:07:03;27.70;1.00
27781;DHT22;15167;1.318;103.762;2023-07-09T13:09:30;27.60;40.30
27781;DHT22;15167;1.318;103.762;2023-07-09T13:11:58;27.60;54.50
27781;DHT22;15167;1.318;103.762;2023-07-09T13:14:27;27.60;79.40
27781;DHT22;15167;1.318;103.762;2023-07-09T13:17:10;27.60;66.30
27781;DHT22;15167;1.318;103.762;2023-07-09T13:19:36;27.60;63.30
27781;DHT22;15167;1.318;103.762;2023-07-09T13:22:05;27.60;57.00
27781;DHT22;15167;1.318;103.762;2023-07-09T13:24:32;27.60;39.90
27781;DHT22;15167;1.318;103.762;2023-07-09T13:27:00;27.70;14.30
27781;DHT22;15167;1.318;103.762;2023-07-09T13:29:31;27.70;22.00
27781;DHT22;15167;1.318;103.762;2023-07-09T13:31:57;27.60;40.30
27781;DHT22;15167;1.318;103.762;2023-07-09T13:34:26;27.60;50.40
27781;DHT22;15167;1.318;103.762;2023-07-09T13:36:54;27.50;46.80
27781;DHT22;15167;1.318;103.762;2023-07-09T13:39:24;27.50;51.10
27781;DHT22;15167;1.318;103.762;2023-07-09T13:41:52;27.50;66.30
27781;DHT22;15167;1.318;103.762;2023-07-09T13:44:24;27.60;66.00
27781;DHT22;15167;1.318;103.762;2023-07-09T13:46:51;27.60;42.90
27781;DHT22;15167;1.318;103.762;2023-07-09T13:49:20;27.60;27.10
27781;DHT22;15167;1.318;103.762;2023-07-09T13:51:48;27.60;18.40
27781;DHT22;15167;1.318;103.762;2023-07-09T13:56:45;27.60;12.80
27781;DHT22;15167;1.318;103.762;2023-07-09T13:59:22;27.60;18.40
27781;DHT22;15167;1.318;103.762;2023-07-09T14:01:51;27.50;28.30
27781;DHT22;15167;1.318;103.762;2023-07-09T14:04:19;27.50;26.40
27781;DHT22;15167;1.318;103.762;2023-07-09T14:06:46;27.50;27.50
27781;DHT22;15167;1.318;103.762;2023-07-09T14:09:14;27.50;37.60
27781;DHT22;15167;1.318;103.762;2023-07-09T14:12:01;27.50;35.00
27781;DHT22;15167;1.318;103.762;2023-07-09T14:14:32;27.60;31.70
27781;DHT22;15167;1.318;103.762;2023-07-09T14:16:58;27.50;31.70
27781;DHT22;15167;1.318;103.762;2023-07-09T14:19:26;29.20;32.40
27781;DHT22;15167;1.318;103.762;2023-07-09T14:21:53;27.60;23.60
27781;DHT22;15167;1.318;103.762;2023-07-09T14:24:27;27.60;16.20
27781;DHT22;15167;1.318;103.762;2023-07-09T14:26:57;27.60;18.70
27781;DHT22;15167;1.318;103.762;2023-07-09T14:29:24;27.60;10.40
27781;DHT22;15167;1.318;103.762;2023-07-09T14:31:52;27.60;1.00
27781;DHT22;15167;1.318;103.762;2023-07-09T14:34:22;27.60;1.00
27781;DHT22;15167;1.318;103.762;2023-07-09T14:36:50;27.60;1.00
27781;DHT22;15167;1.318;103.762;2023-07-09T14:39:17;27.60;1.00
27781;DHT22;15167;1.318;103.762;2023-07-09T14:41:44;27.60;1.00
27781;DHT22;15167;1.318;103.762;2023-07-09T14:46:54;27.60;1.00
27781;DHT22;15167;1.318;103.762;2023-07-09T14:49:21;27.60;1.00
27781;DHT22;15167;1.318;103.762;2023-07-09T14:51:49;27.60;1.00
27781;DHT22;15167;1.318;103.762;2023-07-09T14:54:26;27.60;1.00
27781;DHT22;15167;1.318;103.762;2023-07-09T14:56:54;27.60;1.00
27781;DHT22;15167;1.318;103.762;2023-07-09T14:59:21;27.60;1.00
27781;DHT22;15167;1.318;103.762;2023-07-09T15:01:48;27.60;1.00
27781;DHT22;15167;1.318;103.762;2023-07-09T15:04:33;27.60;1.00
27781;DHT22;15167;1.318;103.762;2023-07-09T15:07:00;27.60;1.00
27781;DHT22;15167;1.318;103.762;2023-07-09T15:09:28;27.50;1.00
27781;DHT22;15167;1.318;103.762;2023-07-09T15:11:57;27.50;1.00
27781;DHT22;15167;1.318;103.762;2023-07-09T15:14:25;27.50;1.00
27781;DHT22;15167;1.318;103.762;2023-07-09T15:16:53;27.50;1.00
27781;DHT22;15167;1.318;103.762;2023-07-09T15:19:21;27.50;1.00
27781;DHT22;15167;1.318;103.762;2023-07-09T15:21:49;27.50;1.00
27781;DHT22;15167;1.318;103.762;2023-07-09T15:24:29;27.50;1.00
27781;DHT22;15167;1.318;103.762;2023-07-09T15:26:58;27.50;1.00
27781;DHT22;15167;1.318;103.762;2023-07-09T15:29:29;27.50;1.00
27781;DHT22;15167;1.318;103.762;2023-07-09T15:31:57;27.50;1.00
27781;DHT22;15167;1.318;103.762;2023-07-09T15:34:24;27.50;1.00
27781;DHT22;15167;1.318;103.762;2023-07-09T15:36:52;27.50;1.00
27781;DHT22;15167;1.318;103.762;2023-07-09T15:39:19;27.50;1.00
27781;DHT22;15167;1.318;103.762;2023-07-09T15:41:47;27.50;1.00
27781;DHT22;15167;1.318;103.762;2023-07-09T15:44:15;27.50;1.00
27781;DHT22;15167;1.318;103.762;2023-07-09T15:46:51;27.50;1.00
27781;DHT22;15167;1.318;103.762;2023-07-09T15:49:20;27.50;1.00
27781;DHT22;15167;1.318;103.762;2023-07-09T15:51:46;27.50;1.00
27781;DHT22;15167;1.318;103.762;2023-07-09T15:54:16;27.50;1.00
27781;DHT22;15167;1.318;103.762;2023-07-09T15:56:44;27.60;1.00
27781;DHT22;15167;1.318;103.762;2023-07-09T15:59:30;27.60;1.00
27781;DHT22;15167;1.318;103.762;2023-07-09T16:01:58;27.60;1.00
27781;DHT22;15167;1.318;103.762;2023-07-09T16:04:25;27.50;1.00
27781;DHT22;15167;1.318;103.762;2023-07-09T16:06:52;27.60;1.00
27781;DHT22;15167;1.318;103.762;2023-07-09T16:09:19;27.60;1.00
27781;DHT22;15167;1.318;103.762;2023-07-09T16:11:48;27.50;1.00
27781;DHT22;15167;1.318;103.762;2023-07-09T16:14:23;27.50;1.00
27781;DHT22;15167;1.318;103.762;2023-07-09T16:16:52;27.50;1.00
27781;DHT22;15167;1.318;103.762;2023-07-09T16:19:21;27.50;1.00
27781;DHT22;15167;1.318;103.762;2023-07-09T16:21:51;27.60;1.00
27781;DHT22;15167;1.318;103.762;2023-07-09T16:24:26;27.60;1.00
27781;DHT22;15167;1.318;103.762;2023-07-09T16:26:53;27.60;1.00
27781;DHT22;15167;1.318;103.762;2023-07-09T16:29:33;27.60;1.00
27781;DHT22;15167;1.318;103.762;2023-07-09T16:32:00;27.50;1.00
27781;DHT22;15167;1.318;103.762;2023-07-09T16:34:29;27.40;1.00
27781;DHT22;15167;1.318;103.762;2023-07-09T16:36:57;27.40;1.00
27781;DHT22;15167;1.318;103.762;2023-07-09T16:41:51;27.50;1.00